首页
METAR-TAF:

METAR-TAF

机场 :

奥斯陆加勒穆恩机场

奥斯陆, 挪威

纬度: 60-12N, 经度: 011-05E, 海拔: 208米

当前天气观测

该预报发布于38分钟前的11:50 UTC
风速15节,风向
温度 17°C
湿度 88%
气压 1008 hPa
能见度10公里或以上
多云层高于1700英尺

METAR: ENGM 161150Z 17015KT 9999 BKN017 17/15 Q1008 TEMPO 19015G25KT

时间: 14:28 (12:28 UTC)

预报

预报有效从16日的 12点(UTC)到 17日的 12点(UTC)
风速15节,风向
能见度10公里或以上
多云层高于1200英尺
小雨
短暂存在
从 16日的 12点(UTC)到 16日的 16点(UTC)
少量云层高于1200英尺
多云层高于2500英尺
短暂存在
从 16日的 12点(UTC)到 17日的 02点(UTC)
风速18节,风向,有时为28节阵风
短暂存在
从 16日的 16点(UTC)到 17日的 02点(UTC)
能見度: 4000
多云层高于800英尺
雨, 毛毛雨, 轻雾
几率 30%
从 17日的 02点(UTC)到 17日的 05点(UTC)
能見度: 4000
多云层高于400英尺
轻雾
成为
从 17日的 05点(UTC)到 17日的 07点(UTC)
少量云层高于2000英尺

TAF: ENGM 1612/1712 19015KT 9999 -RA BKN012 TEMPO 1612/1616 FEW012 BKN025 TEMPO 1612/1702 19018G28KT TEMPO 1616/1702 4000 RADZ BR BKN008 PROB30 1702/1705 4000 BR BKN004 BECMG 1705/1707 FEW020

超过4000个机场的气象观测和天气预报(METAR&TAF报告)。

可查询的气象台以黄色和红色小点在地图上表示。

将鼠标移到小点上方,可查看气象台名称。

然后点击查看天气观测和预报。

如需切换地图:点击带黑十字的绿色按钮放大地图;点击带横线的绿色按钮缩小地图;或者点击绿色箭头查看邻近地区的地图。


METAR-TAF: